createdAt,value
2022-12-19T00:00:13.973Z,1.27
2022-12-19T00:02:42.724Z,1.24
2022-12-19T00:05:11.038Z,1.28
2022-12-19T00:07:38.446Z,1.27
2022-12-19T00:10:06.742Z,1.18
2022-12-19T00:12:34.129Z,1.16
2022-12-19T00:15:05.774Z,1.33
2022-12-19T00:17:33.544Z,1.22
2022-12-19T00:20:05.158Z,1.14
2022-12-19T00:22:32.504Z,1.12
2022-12-19T00:24:59.892Z,1.17
2022-12-19T00:27:27.337Z,1.11
2022-12-19T00:29:54.734Z,1.11
2022-12-19T00:32:22.066Z,1.11
2022-12-19T00:34:49.516Z,1.13
2022-12-19T00:37:17.222Z,1.21
2022-12-19T00:39:44.659Z,1.26
2022-12-19T00:42:14.459Z,1.37
2022-12-19T00:44:42.354Z,1.41
2022-12-19T00:47:09.883Z,1.29
2022-12-19T00:49:38.282Z,1.40
2022-12-19T00:52:06.394Z,1.49
2022-12-19T00:54:33.883Z,1.33
2022-12-19T00:57:01.878Z,1.47
2022-12-19T00:59:29.304Z,1.25
2022-12-19T01:01:57.699Z,1.18
2022-12-19T01:04:29.438Z,1.25
2022-12-19T01:07:02.627Z,1.21
2022-12-19T01:09:34.847Z,1.23
2022-12-19T01:12:24.446Z,1.31
2022-12-19T01:15:05.013Z,1.26
2022-12-19T01:17:44.057Z,1.35
2022-12-19T01:20:16.676Z,1.35
2022-12-19T01:22:45.580Z,1.36
2022-12-19T01:25:14.873Z,1.40
2022-12-19T01:27:42.507Z,1.37
2022-12-19T01:30:10.742Z,1.28
2022-12-19T01:32:39.121Z,1.24
2022-12-19T01:35:06.873Z,1.32
2022-12-19T01:37:38.168Z,1.29
2022-12-19T01:40:06.260Z,1.28
2022-12-19T01:42:36.722Z,1.36
2022-12-19T01:45:05.510Z,1.27
2022-12-19T01:47:37.858Z,1.23
2022-12-19T01:50:05.665Z,1.41
2022-12-19T01:52:33.351Z,1.54
2022-12-19T01:55:01.299Z,1.54
2022-12-19T01:57:30.086Z,1.44
2022-12-19T01:59:59.559Z,1.71
2022-12-19T02:02:35.446Z,1.64
2022-12-19T02:05:05.102Z,1.43
2022-12-19T02:07:33.978Z,1.32
2022-12-19T02:10:02.511Z,1.24
2022-12-19T02:12:39.989Z,1.35
2022-12-19T02:15:10.756Z,1.24
2022-12-19T02:18:04.015Z,1.22
2022-12-19T02:20:50.036Z,1.08
2022-12-19T02:23:57.575Z,1.27
2022-12-19T02:26:40.478Z,1.11
2022-12-19T02:29:40.611Z,0.96
2022-12-19T02:32:27.536Z,0.89
2022-12-19T02:35:04.791Z,0.98
2022-12-19T02:37:50.225Z,0.97
2022-12-19T02:40:33.224Z,1.01
2022-12-19T02:43:03.719Z,0.87
2022-12-19T02:45:35.695Z,0.90
2022-12-19T02:48:08.787Z,0.94
2022-12-19T02:50:42.336Z,0.83
2022-12-19T02:53:16.262Z,0.75
2022-12-19T02:56:09.346Z,0.80
2022-12-19T02:58:44.492Z,0.92
2022-12-19T03:01:33.271Z,0.91
2022-12-19T03:04:20.552Z,0.98
2022-12-19T03:07:02.299Z,0.96
2022-12-19T03:09:46.385Z,0.94
2022-12-19T03:12:21.566Z,0.97
2022-12-19T03:14:50.079Z,0.89
2022-12-19T03:17:18.734Z,0.97
2022-12-19T03:19:48.835Z,0.98
2022-12-19T03:22:16.358Z,1.03
2022-12-19T03:24:44.407Z,1.10
2022-12-19T03:27:19.104Z,1.02
2022-12-19T03:29:54.056Z,0.95
2022-12-19T03:32:23.408Z,1.09
2022-12-19T03:34:57.199Z,1.12
2022-12-19T03:37:29.408Z,1.07
2022-12-19T03:40:01.199Z,1.01
2022-12-19T03:42:50.273Z,1.16
2022-12-19T03:45:26.547Z,1.10
2022-12-19T03:48:04.076Z,1.04
2022-12-19T03:50:43.194Z,1.01
2022-12-19T03:53:20.788Z,1.08
2022-12-19T03:55:56.110Z,0.96
2022-12-19T03:58:46.878Z,0.83
2022-12-19T04:01:14.812Z,0.88
2022-12-19T04:03:42.522Z,0.95
2022-12-19T04:06:13.015Z,0.86
2022-12-19T04:08:41.832Z,1.04
2022-12-19T04:11:15.685Z,1.04
2022-12-19T04:13:49.552Z,0.95
2022-12-19T04:16:40.113Z,0.96
2022-12-19T04:19:22.027Z,0.93
2022-12-19T04:22:02.565Z,0.93
2022-12-19T04:24:37.930Z,1.02
2022-12-19T04:27:08.507Z,1.04
2022-12-19T04:29:37.965Z,1.28
2022-12-19T04:32:07.293Z,1.15
2022-12-19T04:34:42.581Z,1.15
2022-12-19T04:37:11.386Z,1.04
2022-12-19T04:39:40.901Z,1.11
2022-12-19T04:42:08.365Z,0.95
2022-12-19T04:44:35.730Z,1.02
2022-12-19T04:47:03.466Z,0.89
2022-12-19T04:49:30.854Z,0.96
2022-12-19T04:51:58.332Z,0.85
2022-12-19T04:54:26.224Z,1.00
2022-12-19T04:56:54.543Z,1.00
2022-12-19T04:59:21.905Z,1.01
2022-12-19T05:01:49.465Z,1.09
2022-12-19T05:04:16.925Z,1.04
2022-12-19T05:06:44.382Z,1.04
2022-12-19T05:09:14.428Z,1.06
2022-12-19T05:11:41.917Z,1.10
2022-12-19T05:14:09.661Z,1.10
2022-12-19T05:16:37.127Z,1.06
2022-12-19T05:19:04.730Z,1.04
2022-12-19T05:21:32.163Z,1.02
2022-12-19T05:23:59.856Z,1.03
2022-12-19T05:26:27.996Z,1.05
2022-12-19T05:28:55.320Z,1.14
2022-12-19T05:31:22.794Z,1.06
2022-12-19T05:33:50.630Z,1.12
2022-12-19T05:36:18.706Z,1.10
2022-12-19T05:38:46.291Z,1.04
2022-12-19T05:41:18.233Z,1.13
2022-12-19T05:43:49.797Z,1.20
2022-12-19T05:46:17.278Z,1.19
2022-12-19T05:48:44.733Z,1.10
2022-12-19T05:51:12.654Z,1.23
2022-12-19T05:53:40.778Z,1.15
2022-12-19T05:56:11.133Z,1.28
2022-12-19T05:58:39.865Z,1.27
2022-12-19T06:01:09.883Z,1.23
2022-12-19T06:03:38.923Z,1.42
2022-12-19T06:06:09.576Z,1.52
2022-12-19T06:08:37.437Z,1.41
2022-12-19T06:11:06.804Z,1.34
2022-12-19T06:13:35.568Z,1.30
2022-12-19T06:16:08.713Z,1.30
2022-12-19T06:18:40.456Z,1.39
2022-12-19T06:21:18.611Z,1.39
2022-12-19T06:23:46.832Z,1.23
2022-12-19T06:26:19.874Z,1.36
2022-12-19T06:28:49.073Z,1.42
2022-12-19T06:31:17.699Z,1.61
2022-12-19T06:33:45.157Z,1.58
2022-12-19T06:36:18.828Z,1.46
2022-12-19T06:38:47.682Z,1.49
2022-12-19T06:41:34.292Z,1.47
2022-12-19T06:44:04.663Z,1.42
2022-12-19T06:46:33.775Z,1.48
2022-12-19T06:49:02.201Z,1.39
2022-12-19T06:51:29.998Z,1.45
2022-12-19T06:53:57.656Z,1.45
2022-12-19T06:56:25.335Z,1.45
2022-12-19T06:58:52.816Z,1.45
2022-12-19T07:01:41.735Z,1.60
2022-12-19T07:04:12.256Z,1.67
2022-12-19T07:06:42.348Z,1.74
2022-12-19T07:09:12.146Z,1.71
2022-12-19T07:11:39.759Z,1.82
2022-12-19T07:14:07.160Z,1.76
2022-12-19T07:16:37.925Z,1.77
2022-12-19T07:19:07.204Z,1.65
2022-12-19T07:21:36.947Z,1.68
2022-12-19T07:24:07.891Z,1.83
2022-12-19T07:26:36.812Z,1.83
2022-12-19T07:29:05.406Z,1.83
2022-12-19T07:31:34.424Z,1.78
2022-12-19T07:34:01.841Z,1.78
2022-12-19T07:36:29.279Z,1.72
2022-12-19T07:38:56.698Z,1.76
2022-12-19T07:41:24.135Z,1.70
2022-12-19T07:43:51.509Z,1.89
2022-12-19T07:46:19.034Z,1.85
2022-12-19T07:48:46.473Z,1.79
2022-12-19T07:51:13.873Z,1.80
2022-12-19T07:53:41.245Z,1.88
2022-12-19T07:56:08.783Z,1.95
2022-12-19T07:58:36.475Z,1.92
2022-12-19T08:01:03.990Z,1.94
2022-12-19T08:03:31.372Z,2.01
2022-12-19T08:06:04.249Z,2.05
2022-12-19T08:08:31.808Z,1.85
2022-12-19T08:11:17.544Z,1.97
2022-12-19T08:13:46.988Z,2.03
2022-12-19T08:16:15.233Z,2.15
2022-12-19T08:18:42.961Z,2.11
2022-12-19T08:21:11.106Z,2.19
2022-12-19T08:23:41.401Z,2.02
2022-12-19T08:26:14.293Z,2.13
2022-12-19T08:28:42.340Z,2.19
2022-12-19T08:31:13.336Z,2.27
2022-12-19T08:33:42.954Z,2.26
2022-12-19T08:36:12.995Z,2.22
2022-12-19T08:38:40.648Z,2.23
2022-12-19T08:41:08.594Z,2.18
2022-12-19T08:43:36.000Z,2.33
2022-12-19T08:46:04.189Z,2.32
2022-12-19T08:48:33.100Z,2.31
2022-12-19T08:51:08.591Z,2.32
2022-12-19T08:53:39.527Z,2.27
2022-12-19T08:56:18.500Z,2.43
2022-12-19T08:58:46.511Z,2.43
2022-12-19T09:01:19.276Z,2.49
2022-12-19T09:04:19.938Z,2.42
2022-12-19T09:06:35.927Z,2.46
2022-12-19T09:09:04.590Z,2.48
2022-12-19T09:11:32.241Z,2.51
2022-12-19T09:13:59.777Z,2.54
2022-12-19T09:16:28.649Z,2.62
2022-12-19T09:18:58.793Z,2.64
2022-12-19T09:21:29.226Z,2.67
2022-12-19T09:24:07.050Z,2.70
2022-12-19T09:26:38.538Z,2.76
2022-12-19T09:29:12.573Z,2.74
2022-12-19T09:31:47.558Z,2.90
2022-12-19T09:34:17.372Z,3.08
2022-12-19T09:36:44.776Z,3.04
2022-12-19T09:39:12.636Z,3.12
2022-12-19T09:42:01.526Z,3.17
2022-12-19T09:45:02.323Z,3.08
2022-12-19T09:47:31.818Z,3.11
2022-12-19T09:50:00.837Z,3.22
2022-12-19T09:52:42.356Z,3.30
2022-12-19T09:55:22.759Z,3.28
2022-12-19T09:58:12.636Z,3.33
2022-12-19T10:00:49.272Z,3.49
2022-12-19T10:03:40.369Z,3.68
2022-12-19T10:07:11.921Z,3.56
2022-12-19T10:11:38.193Z,3.43
2022-12-19T10:12:43.159Z,3.44
2022-12-19T10:15:14.306Z,3.35
2022-12-19T10:18:05.592Z,3.40
2022-12-19T10:20:37.299Z,3.44
2022-12-19T10:23:42.242Z,3.56
2022-12-19T10:26:35.178Z,3.55
2022-12-19T10:29:18.811Z,3.61
2022-12-19T10:31:56.015Z,3.59
2022-12-19T10:34:41.199Z,3.59
2022-12-19T10:37:35.156Z,3.50
2022-12-19T10:40:32.059Z,3.58
2022-12-19T10:43:32.134Z,3.67
2022-12-19T10:46:09.936Z,3.93
2022-12-19T10:48:37.345Z,3.81
2022-12-19T10:51:06.397Z,3.78
2022-12-19T10:53:34.424Z,3.70
2022-12-19T10:56:12.186Z,3.61
2022-12-19T10:58:44.402Z,3.59
2022-12-19T11:01:13.706Z,3.76
2022-12-19T11:03:49.287Z,3.68
2022-12-19T11:06:37.957Z,3.70
2022-12-19T11:09:29.376Z,3.71
2022-12-19T11:16:47.266Z,3.78
2022-12-19T11:18:50.890Z,3.95
2022-12-19T11:28:36.003Z,3.97
2022-12-19T11:29:43.817Z,3.95
2022-12-19T11:30:45.725Z,4.09
2022-12-19T11:30:48.369Z,4.18
2022-12-19T11:32:44.166Z,4.02
2022-12-19T11:38:13.467Z,4.27
2022-12-19T11:40:55.380Z,4.25
2022-12-19T11:43:45.097Z,4.36
2022-12-19T11:46:31.761Z,4.34
2022-12-19T11:49:09.026Z,4.44
2022-12-19T11:53:02.388Z,4.45
2022-12-19T11:55:19.053Z,4.49
2022-12-19T11:57:47.411Z,4.50
2022-12-19T12:00:21.618Z,4.19
2022-12-19T12:02:51.908Z,4.12
2022-12-19T12:05:22.077Z,4.24
2022-12-19T12:09:14.692Z,4.42
2022-12-19T12:16:32.959Z,4.59
2022-12-19T12:23:19.954Z,4.61
2022-12-19T12:28:44.343Z,4.63
2022-12-19T12:31:23.723Z,4.65
2022-12-19T12:31:32.655Z,4.77
2022-12-19T12:31:56.212Z,4.66
2022-12-19T12:32:00.735Z,4.68
2022-12-19T12:35:55.105Z,4.92
2022-12-19T12:38:43.362Z,5.14
2022-12-19T12:41:20.617Z,5.19
2022-12-19T12:44:08.774Z,5.07
2022-12-19T12:46:49.848Z,5.15
2022-12-19T12:49:37.554Z,5.07
2022-12-19T12:52:08.285Z,4.86
2022-12-19T12:54:40.555Z,4.93
2022-12-19T12:57:18.670Z,4.63
2022-12-19T12:59:50.127Z,4.67
2022-12-19T13:02:24.050Z,4.74
2022-12-19T13:04:58.377Z,4.75
2022-12-19T13:07:33.849Z,4.73
2022-12-19T13:10:14.548Z,4.84
2022-12-19T13:13:00.131Z,4.93
2022-12-19T13:15:27.613Z,4.96
2022-12-19T13:17:54.931Z,4.79
2022-12-19T13:20:25.152Z,4.68
2022-12-19T13:23:00.946Z,4.88
2022-12-19T13:25:34.356Z,4.84
2022-12-19T13:28:01.631Z,4.83
2022-12-19T13:30:31.085Z,4.91
2022-12-19T13:33:01.576Z,4.92
2022-12-19T13:37:01.075Z,4.87
2022-12-19T13:40:00.222Z,4.97
2022-12-19T13:42:01.438Z,4.95
2022-12-19T13:44:30.529Z,4.86
2022-12-19T13:46:57.963Z,4.81
2022-12-19T13:49:34.605Z,4.81
2022-12-19T13:52:04.921Z,4.77
2022-12-19T13:54:44.868Z,4.74
2022-12-19T13:57:28.853Z,4.83
2022-12-19T14:00:04.036Z,4.76
2022-12-19T14:02:50.882Z,4.81
2022-12-19T14:06:14.928Z,4.69
2022-12-19T14:08:25.509Z,4.64
2022-12-19T14:11:34.962Z,4.71
2022-12-19T14:14:16.389Z,4.69
2022-12-19T14:16:46.144Z,4.67
2022-12-19T14:19:25.431Z,4.65
2022-12-19T14:22:04.002Z,4.68
2022-12-19T14:24:35.727Z,4.63
2022-12-19T14:28:19.204Z,4.56
2022-12-19T14:30:29.848Z,4.65
2022-12-19T14:33:46.019Z,4.65
2022-12-19T14:36:07.384Z,4.56
2022-12-19T14:39:23.053Z,4.49
2022-12-19T14:41:49.159Z,4.49
2022-12-19T14:52:25.876Z,4.56
2022-12-19T14:54:01.593Z,4.70
2022-12-19T14:54:03.319Z,4.60
2022-12-19T14:54:26.483Z,4.60
2022-12-19T14:59:02.177Z,4.50
2022-12-19T15:01:36.583Z,4.48
2022-12-19T15:04:48.281Z,4.35
2022-12-19T15:07:08.332Z,4.25
2022-12-19T15:11:07.501Z,4.19
2022-12-19T15:14:51.990Z,4.23
2022-12-19T15:16:05.632Z,4.18
2022-12-19T15:18:35.395Z,4.23
2022-12-19T15:21:05.747Z,4.20
2022-12-19T15:23:33.149Z,4.13
2022-12-19T15:26:04.543Z,4.11
2022-12-19T15:28:56.213Z,4.05
2022-12-19T15:31:41.922Z,4.02
2022-12-19T15:37:14.551Z,3.95
2022-12-19T15:39:43.535Z,4.04
2022-12-19T15:42:22.907Z,3.95
2022-12-19T15:44:54.855Z,3.93
2022-12-19T15:47:37.059Z,4.04
2022-12-19T15:50:26.126Z,4.00
2022-12-19T15:52:56.716Z,4.00
2022-12-19T15:55:27.523Z,3.99
2022-12-19T15:57:59.034Z,4.00
2022-12-19T16:00:32.396Z,3.93
2022-12-19T16:05:48.242Z,3.86
2022-12-19T16:08:21.133Z,3.89
2022-12-19T16:11:01.080Z,3.80
2022-12-19T16:13:34.038Z,3.93
2022-12-19T16:16:04.584Z,3.83
2022-12-19T16:18:36.471Z,3.81
2022-12-19T16:21:06.401Z,3.84
2022-12-19T16:23:33.882Z,3.80
2022-12-19T16:26:01.705Z,3.75
2022-12-19T16:28:31.847Z,3.78
2022-12-19T16:31:00.040Z,3.77
2022-12-19T16:33:30.499Z,3.77
2022-12-19T16:36:06.587Z,3.77
2022-12-19T16:38:35.579Z,3.76
2022-12-19T16:41:03.550Z,3.77
2022-12-19T16:43:38.763Z,3.76
2022-12-19T16:46:07.447Z,3.78
2022-12-19T16:48:37.947Z,3.77
2022-12-19T16:51:05.500Z,3.85
2022-12-19T16:53:33.066Z,3.83
2022-12-19T16:56:01.483Z,3.83
2022-12-19T16:58:29.514Z,3.79
2022-12-19T17:00:57.388Z,3.73
2022-12-19T17:03:33.626Z,3.67
2022-12-19T17:06:04.113Z,3.79
2022-12-19T17:08:32.426Z,3.75
2022-12-19T17:10:59.941Z,3.72
2022-12-19T17:13:27.568Z,3.72
2022-12-19T17:15:57.316Z,3.76
2022-12-19T17:18:34.917Z,3.74
2022-12-19T17:21:02.920Z,3.74
2022-12-19T17:23:33.674Z,3.71
2022-12-19T17:26:01.097Z,3.69
2022-12-19T17:28:30.434Z,3.70
2022-12-19T17:31:02.076Z,3.68
2022-12-19T17:33:35.250Z,3.63
2022-12-19T17:36:04.866Z,3.63
2022-12-19T17:38:32.730Z,3.60
2022-12-19T17:41:00.489Z,3.55
2022-12-19T17:43:27.883Z,3.53
2022-12-19T17:45:55.464Z,3.50
2022-12-19T17:48:31.609Z,3.46
2022-12-19T17:51:02.746Z,3.40
2022-12-19T17:53:30.156Z,3.45
2022-12-19T17:56:00.296Z,3.44
2022-12-19T17:58:27.631Z,3.42
2022-12-19T18:00:56.857Z,3.42
2022-12-19T18:03:26.452Z,3.47
2022-12-19T18:05:55.572Z,3.50
2022-12-19T18:08:26.490Z,3.52
2022-12-19T18:10:56.690Z,3.49
2022-12-19T18:13:25.252Z,3.46
2022-12-19T18:15:56.096Z,3.46
2022-12-19T18:18:28.549Z,3.47
2022-12-19T18:20:57.828Z,3.50
2022-12-19T18:23:25.290Z,3.53
2022-12-19T18:25:57.728Z,3.48
2022-12-19T18:28:28.891Z,3.44
2022-12-19T18:31:11.185Z,3.37
2022-12-19T18:33:41.218Z,3.29
2022-12-19T18:36:19.922Z,3.25
2022-12-19T18:38:48.893Z,3.28
2022-12-19T18:41:17.564Z,3.32
2022-12-19T18:43:45.676Z,3.31
2022-12-19T18:46:28.427Z,3.29
2022-12-19T18:48:56.088Z,3.26
2022-12-19T18:51:23.605Z,3.28
2022-12-19T18:53:51.679Z,3.32
2022-12-19T18:56:19.209Z,3.34
2022-12-19T18:58:48.500Z,3.31
2022-12-19T19:01:18.766Z,3.40
2022-12-19T19:03:53.403Z,3.44
2022-12-19T19:06:25.808Z,3.45
2022-12-19T19:08:53.970Z,3.45
2022-12-19T19:11:40.815Z,3.47
2022-12-19T19:14:09.028Z,3.45
2022-12-19T19:16:37.334Z,3.48
2022-12-19T19:19:07.146Z,3.46
2022-12-19T19:21:36.059Z,3.52
2022-12-19T19:24:08.843Z,3.53
2022-12-19T19:26:36.286Z,3.54
2022-12-19T19:29:03.920Z,3.50
2022-12-19T19:31:35.940Z,3.44
2022-12-19T19:34:10.036Z,3.46
2022-12-19T19:36:42.493Z,3.49
2022-12-19T19:39:10.842Z,3.57
2022-12-19T19:41:38.249Z,3.64
2022-12-19T19:44:05.655Z,3.71
2022-12-19T19:46:33.525Z,3.76
2022-12-19T19:49:02.229Z,3.78
2022-12-19T19:51:30.482Z,3.72
2022-12-19T19:53:58.283Z,3.69
2022-12-19T19:56:25.643Z,3.64
2022-12-19T19:58:54.954Z,3.70
2022-12-19T20:01:25.380Z,3.79
2022-12-19T20:03:53.016Z,3.77
2022-12-19T20:06:20.466Z,3.81
2022-12-19T20:08:50.587Z,3.83
2022-12-19T20:11:18.106Z,3.84
2022-12-19T20:13:45.566Z,3.80
2022-12-19T20:16:18.274Z,3.81
2022-12-19T20:18:50.599Z,3.81
2022-12-19T20:21:19.791Z,3.80
2022-12-19T20:23:47.480Z,3.80
2022-12-19T20:26:16.498Z,3.82
2022-12-19T20:28:48.802Z,3.83
2022-12-19T20:31:25.082Z,3.83
2022-12-19T20:33:55.676Z,3.88
2022-12-19T20:36:24.154Z,3.86
2022-12-19T20:38:52.823Z,3.90
2022-12-19T20:41:20.811Z,3.82
2022-12-19T20:43:48.371Z,3.83
2022-12-19T20:46:19.279Z,3.84
2022-12-19T20:48:47.738Z,3.85
2022-12-19T20:51:17.498Z,3.88
2022-12-19T20:53:46.356Z,3.84
2022-12-19T20:56:17.022Z,3.85
2022-12-19T20:58:45.394Z,3.82
2022-12-19T21:01:17.561Z,3.90
2022-12-19T21:03:45.656Z,3.90
2022-12-19T21:06:17.981Z,3.90
2022-12-19T21:08:45.904Z,3.96
2022-12-19T21:11:15.448Z,4.03
2022-12-19T21:13:43.483Z,4.01
2022-12-19T21:16:18.243Z,4.00
2022-12-19T21:18:46.804Z,3.99
2022-12-19T21:21:18.131Z,3.99
2022-12-19T21:23:46.407Z,4.05
2022-12-19T21:26:14.003Z,3.97
2022-12-19T21:28:41.777Z,3.97
2022-12-19T21:31:20.858Z,3.96
2022-12-19T21:33:49.298Z,3.93
2022-12-19T21:36:20.265Z,3.99
2022-12-19T21:38:52.201Z,4.00
2022-12-19T21:41:19.718Z,4.05
2022-12-19T21:43:49.267Z,4.03
2022-12-19T21:46:16.991Z,3.99
2022-12-19T21:48:47.013Z,4.02
2022-12-19T21:51:15.716Z,4.00
2022-12-19T21:53:43.125Z,4.06
2022-12-19T21:56:19.552Z,4.08
2022-12-19T21:58:47.020Z,4.08
2022-12-19T22:01:15.686Z,4.10
2022-12-19T22:03:43.396Z,4.06
2022-12-19T22:06:27.040Z,4.11
2022-12-19T22:08:56.589Z,4.04
2022-12-19T22:11:24.668Z,4.06
2022-12-19T22:13:52.307Z,4.06
2022-12-19T22:16:19.995Z,4.05
2022-12-19T22:18:47.776Z,4.00
2022-12-19T22:21:15.858Z,4.03
2022-12-19T22:23:43.282Z,4.01
2022-12-19T22:26:17.242Z,4.00
2022-12-19T22:28:46.980Z,3.99
2022-12-19T22:31:17.118Z,3.97
2022-12-19T22:33:45.074Z,3.93
2022-12-19T22:36:15.544Z,3.90
2022-12-19T22:38:46.025Z,3.94
2022-12-19T22:41:13.908Z,3.94
2022-12-19T22:43:41.689Z,3.94
2022-12-19T22:46:26.304Z,3.92
2022-12-19T22:48:57.023Z,3.89
2022-12-19T22:51:25.005Z,3.93
2022-12-19T22:53:52.698Z,3.94
2022-12-19T22:56:23.078Z,3.95
2022-12-19T22:58:52.221Z,3.94
2022-12-19T23:01:28.839Z,3.91
2022-12-19T23:03:58.367Z,3.97
2022-12-19T23:06:28.323Z,3.94
2022-12-19T23:08:55.860Z,3.88
2022-12-19T23:11:30.495Z,3.91
2022-12-19T23:14:00.879Z,3.93
2022-12-19T23:16:29.611Z,3.94
2022-12-19T23:18:57.483Z,3.96
2022-12-19T23:21:25.922Z,3.93
2022-12-19T23:23:54.943Z,3.91
2022-12-19T23:26:28.664Z,3.92
2022-12-19T23:28:58.740Z,3.91
2022-12-19T23:31:27.306Z,3.90
2022-12-19T23:33:55.596Z,3.90
2022-12-19T23:36:52.705Z,3.92
2022-12-19T23:39:12.134Z,3.88
2022-12-19T23:41:39.662Z,3.84
2022-12-19T23:44:08.296Z,3.89
2022-12-19T23:46:36.108Z,3.98
2022-12-19T23:49:03.968Z,3.96
2022-12-19T23:51:31.361Z,3.96
2022-12-19T23:53:58.690Z,4.03
2022-12-19T23:56:30.234Z,4.05
2022-12-19T23:59:00.890Z,4.06
